sensor_id;sensor_type;location;lat;lon;timestamp;P1;durP1;ratioP1;P2;durP2;ratioP2
78187;SDS011;67456;41.872;21.602;2024-01-25T00:02:00;46.40;;;24.40;;
78187;SDS011;67456;41.872;21.602;2024-01-25T00:04:28;52.25;;;28.35;;
78187;SDS011;67456;41.872;21.602;2024-01-25T00:06:54;51.72;;;26.63;;
78187;SDS011;67456;41.872;21.602;2024-01-25T00:09:20;45.78;;;24.10;;
78187;SDS011;67456;41.872;21.602;2024-01-25T00:11:46;42.10;;;24.88;;
78187;SDS011;67456;41.872;21.602;2024-01-25T00:14:12;38.75;;;23.17;;
78187;SDS011;67456;41.872;21.602;2024-01-25T00:16:42;33.38;;;18.75;;
78187;SDS011;67456;41.872;21.602;2024-01-25T00:19:08;39.25;;;24.15;;
78187;SDS011;67456;41.872;21.602;2024-01-25T00:21:34;44.25;;;25.50;;
78187;SDS011;67456;41.872;21.602;2024-01-25T00:24:01;52.70;;;28.83;;
78187;SDS011;67456;41.872;21.602;2024-01-25T00:26:27;50.17;;;28.85;;
78187;SDS011;67456;41.872;21.602;2024-01-25T00:28:54;54.25;;;29.25;;
78187;SDS011;67456;41.872;21.602;2024-01-25T00:31:20;47.20;;;25.73;;
78187;SDS011;67456;41.872;21.602;2024-01-25T00:33:46;41.28;;;24.58;;
78187;SDS011;67456;41.872;21.602;2024-01-25T00:36:12;53.22;;;27.63;;
78187;SDS011;67456;41.872;21.602;2024-01-25T00:38:39;45.28;;;25.35;;
78187;SDS011;67456;41.872;21.602;2024-01-25T00:41:05;45.97;;;26.92;;
78187;SDS011;67456;41.872;21.602;2024-01-25T00:43:35;50.38;;;28.80;;
78187;SDS011;67456;41.872;21.602;2024-01-25T00:46:01;33.22;;;20.05;;
78187;SDS011;67456;41.872;21.602;2024-01-25T00:48:27;48.97;;;26.08;;
78187;SDS011;67456;41.872;21.602;2024-01-25T00:50:54;28.52;;;17.02;;
78187;SDS011;67456;41.872;21.602;2024-01-25T00:53:20;27.75;;;15.82;;
78187;SDS011;67456;41.872;21.602;2024-01-25T00:55:46;22.77;;;13.88;;
78187;SDS011;67456;41.872;21.602;2024-01-25T00:58:13;20.88;;;12.48;;
78187;SDS011;67456;41.872;21.602;2024-01-25T01:00:39;29.65;;;16.67;;
78187;SDS011;67456;41.872;21.602;2024-01-25T01:03:05;30.25;;;17.63;;
78187;SDS011;67456;41.872;21.602;2024-01-25T01:05:32;46.15;;;23.27;;
78187;SDS011;67456;41.872;21.602;2024-01-25T01:07:59;36.88;;;21.15;;
78187;SDS011;67456;41.872;21.602;2024-01-25T01:10:25;29.35;;;15.82;;
78187;SDS011;67456;41.872;21.602;2024-01-25T01:12:51;33.53;;;19.92;;
78187;SDS011;67456;41.872;21.602;2024-01-25T01:15:19;33.95;;;18.48;;
78187;SDS011;67456;41.872;21.602;2024-01-25T01:17:45;30.33;;;16.35;;
78187;SDS011;67456;41.872;21.602;2024-01-25T01:20:11;29.83;;;17.95;;
78187;SDS011;67456;41.872;21.602;2024-01-25T01:22:37;42.83;;;24.40;;
78187;SDS011;67456;41.872;21.602;2024-01-25T01:25:04;48.75;;;26.98;;
78187;SDS011;67456;41.872;21.602;2024-01-25T01:27:30;45.35;;;25.00;;
78187;SDS011;67456;41.872;21.602;2024-01-25T01:29:56;45.63;;;23.92;;
78187;SDS011;67456;41.872;21.602;2024-01-25T01:32:22;69.60;;;35.35;;
78187;SDS011;67456;41.872;21.602;2024-01-25T01:34:49;65.93;;;35.22;;
78187;SDS011;67456;41.872;21.602;2024-01-25T01:37:15;64.13;;;32.33;;
78187;SDS011;67456;41.872;21.602;2024-01-25T01:39:41;65.28;;;32.83;;
78187;SDS011;67456;41.872;21.602;2024-01-25T01:42:07;60.58;;;30.05;;
78187;SDS011;67456;41.872;21.602;2024-01-25T01:44:33;58.78;;;28.92;;
78187;SDS011;67456;41.872;21.602;2024-01-25T01:46:59;49.72;;;28.20;;
78187;SDS011;67456;41.872;21.602;2024-01-25T01:49:26;57.50;;;29.40;;
78187;SDS011;67456;41.872;21.602;2024-01-25T01:51:52;57.40;;;29.80;;
78187;SDS011;67456;41.872;21.602;2024-01-25T01:54:18;49.92;;;28.23;;
78187;SDS011;67456;41.872;21.602;2024-01-25T01:56:45;56.95;;;29.02;;
78187;SDS011;67456;41.872;21.602;2024-01-25T01:59:11;57.25;;;31.05;;
78187;SDS011;67456;41.872;21.602;2024-01-25T02:01:37;54.42;;;29.77;;
78187;SDS011;67456;41.872;21.602;2024-01-25T02:04:04;50.92;;;27.45;;
78187;SDS011;67456;41.872;21.602;2024-01-25T02:06:30;51.90;;;25.80;;
78187;SDS011;67456;41.872;21.602;2024-01-25T02:08:57;42.85;;;25.40;;
78187;SDS011;67456;41.872;21.602;2024-01-25T02:11:26;51.25;;;28.52;;
78187;SDS011;67456;41.872;21.602;2024-01-25T02:13:52;36.15;;;19.95;;
78187;SDS011;67456;41.872;21.602;2024-01-25T02:16:19;28.40;;;15.65;;
78187;SDS011;67456;41.872;21.602;2024-01-25T02:18:45;20.63;;;14.00;;
78187;SDS011;67456;41.872;21.602;2024-01-25T02:21:12;21.55;;;12.68;;
78187;SDS011;67456;41.872;21.602;2024-01-25T02:23:38;25.17;;;13.73;;
78187;SDS011;67456;41.872;21.602;2024-01-25T02:26:05;11.75;;;6.30;;
78187;SDS011;67456;41.872;21.602;2024-01-25T02:28:31;11.70;;;6.93;;
78187;SDS011;67456;41.872;21.602;2024-01-25T02:31:00;8.98;;;6.07;;
78187;SDS011;67456;41.872;21.602;2024-01-25T02:33:26;12.90;;;6.68;;
78187;SDS011;67456;41.872;21.602;2024-01-25T02:35:53;12.32;;;6.63;;
78187;SDS011;67456;41.872;21.602;2024-01-25T02:38:19;12.48;;;7.50;;
78187;SDS011;67456;41.872;21.602;2024-01-25T02:40:45;13.45;;;6.85;;
78187;SDS011;67456;41.872;21.602;2024-01-25T02:43:12;15.50;;;8.57;;
78187;SDS011;67456;41.872;21.602;2024-01-25T02:45:38;17.88;;;9.73;;
78187;SDS011;67456;41.872;21.602;2024-01-25T02:48:04;16.95;;;8.93;;
78187;SDS011;67456;41.872;21.602;2024-01-25T02:50:30;16.10;;;8.00;;
78187;SDS011;67456;41.872;21.602;2024-01-25T02:52:57;17.40;;;8.75;;
78187;SDS011;67456;41.872;21.602;2024-01-25T02:55:23;15.07;;;9.23;;
78187;SDS011;67456;41.872;21.602;2024-01-25T02:57:49;17.60;;;10.15;;
78187;SDS011;67456;41.872;21.602;2024-01-25T03:00:15;19.10;;;11.70;;
78187;SDS011;67456;41.872;21.602;2024-01-25T03:02:41;20.10;;;11.18;;
78187;SDS011;67456;41.872;21.602;2024-01-25T03:05:07;19.35;;;11.65;;
78187;SDS011;67456;41.872;21.602;2024-01-25T03:07:34;19.40;;;11.77;;
78187;SDS011;67456;41.872;21.602;2024-01-25T03:10:00;16.90;;;10.93;;
78187;SDS011;67456;41.872;21.602;2024-01-25T03:12:26;16.58;;;11.15;;
78187;SDS011;67456;41.872;21.602;2024-01-25T03:14:52;18.15;;;12.05;;
78187;SDS011;67456;41.872;21.602;2024-01-25T03:17:19;18.05;;;12.40;;
78187;SDS011;67456;41.872;21.602;2024-01-25T03:19:45;19.25;;;11.98;;
78187;SDS011;67456;41.872;21.602;2024-01-25T03:22:12;17.98;;;13.02;;
78187;SDS011;67456;41.872;21.602;2024-01-25T03:24:38;23.80;;;14.82;;
78187;SDS011;67456;41.872;21.602;2024-01-25T03:27:05;24.60;;;14.15;;
78187;SDS011;67456;41.872;21.602;2024-01-25T03:29:38;22.20;;;13.43;;
78187;SDS011;67456;41.872;21.602;2024-01-25T03:32:06;20.85;;;12.55;;
78187;SDS011;67456;41.872;21.602;2024-01-25T03:34:32;23.98;;;13.32;;
78187;SDS011;67456;41.872;21.602;2024-01-25T03:36:58;22.08;;;14.45;;
78187;SDS011;67456;41.872;21.602;2024-01-25T03:39:24;22.05;;;13.25;;
78187;SDS011;67456;41.872;21.602;2024-01-25T03:41:51;23.45;;;13.10;;
78187;SDS011;67456;41.872;21.602;2024-01-25T03:44:17;29.17;;;16.13;;
78187;SDS011;67456;41.872;21.602;2024-01-25T03:46:43;40.42;;;22.08;;
78187;SDS011;67456;41.872;21.602;2024-01-25T03:49:09;39.83;;;19.83;;
78187;SDS011;67456;41.872;21.602;2024-01-25T03:51:35;34.92;;;20.70;;
78187;SDS011;67456;41.872;21.602;2024-01-25T03:54:02;34.53;;;19.60;;
78187;SDS011;67456;41.872;21.602;2024-01-25T03:56:28;33.28;;;20.15;;
78187;SDS011;67456;41.872;21.602;2024-01-25T03:58:55;28.02;;;16.10;;
78187;SDS011;67456;41.872;21.602;2024-01-25T04:01:21;24.80;;;15.15;;
78187;SDS011;67456;41.872;21.602;2024-01-25T04:03:47;29.90;;;14.73;;
78187;SDS011;67456;41.872;21.602;2024-01-25T04:06:13;22.23;;;15.20;;
78187;SDS011;67456;41.872;21.602;2024-01-25T04:08:39;24.73;;;15.52;;
78187;SDS011;67456;41.872;21.602;2024-01-25T04:11:06;70.85;;;30.75;;
78187;SDS011;67456;41.872;21.602;2024-01-25T04:13:34;30.60;;;15.90;;
78187;SDS011;67456;41.872;21.602;2024-01-25T04:16:00;32.30;;;19.63;;
78187;SDS011;67456;41.872;21.602;2024-01-25T04:18:26;22.35;;;13.88;;
78187;SDS011;67456;41.872;21.602;2024-01-25T04:20:52;25.77;;;14.88;;
78187;SDS011;67456;41.872;21.602;2024-01-25T04:23:19;22.10;;;13.80;;
78187;SDS011;67456;41.872;21.602;2024-01-25T04:25:45;18.55;;;11.70;;
78187;SDS011;67456;41.872;21.602;2024-01-25T04:28:11;22.65;;;14.20;;
78187;SDS011;67456;41.872;21.602;2024-01-25T04:30:37;24.13;;;13.73;;
78187;SDS011;67456;41.872;21.602;2024-01-25T04:33:04;33.00;;;20.08;;
78187;SDS011;67456;41.872;21.602;2024-01-25T04:35:30;31.42;;;20.23;;
78187;SDS011;67456;41.872;21.602;2024-01-25T04:37:56;27.02;;;17.23;;
78187;SDS011;67456;41.872;21.602;2024-01-25T04:40:23;23.48;;;12.63;;
78187;SDS011;67456;41.872;21.602;2024-01-25T04:42:49;24.48;;;15.57;;
78187;SDS011;67456;41.872;21.602;2024-01-25T04:45:15;26.25;;;16.02;;
78187;SDS011;67456;41.872;21.602;2024-01-25T04:47:41;29.45;;;16.77;;
78187;SDS011;67456;41.872;21.602;2024-01-25T04:50:07;27.25;;;15.65;;
78187;SDS011;67456;41.872;21.602;2024-01-25T04:52:34;25.08;;;16.98;;
78187;SDS011;67456;41.872;21.602;2024-01-25T04:55:00;30.80;;;18.77;;
78187;SDS011;67456;41.872;21.602;2024-01-25T04:57:26;35.92;;;18.58;;
78187;SDS011;67456;41.872;21.602;2024-01-25T04:59:56;42.00;;;23.77;;
78187;SDS011;67456;41.872;21.602;2024-01-25T05:02:22;30.65;;;17.67;;
78187;SDS011;67456;41.872;21.602;2024-01-25T05:04:48;23.75;;;14.18;;
78187;SDS011;67456;41.872;21.602;2024-01-25T05:07:14;25.27;;;15.90;;
78187;SDS011;67456;41.872;21.602;2024-01-25T05:09:40;27.65;;;17.20;;
78187;SDS011;67456;41.872;21.602;2024-01-25T05:12:07;37.22;;;22.70;;
78187;SDS011;67456;41.872;21.602;2024-01-25T05:14:33;35.17;;;20.73;;
78187;SDS011;67456;41.872;21.602;2024-01-25T05:16:59;25.65;;;15.57;;
78187;SDS011;67456;41.872;21.602;2024-01-25T05:19:25;25.05;;;16.10;;
78187;SDS011;67456;41.872;21.602;2024-01-25T05:21:52;32.97;;;20.45;;
78187;SDS011;67456;41.872;21.602;2024-01-25T05:24:18;45.42;;;28.63;;
78187;SDS011;67456;41.872;21.602;2024-01-25T05:26:44;55.72;;;28.48;;
78187;SDS011;67456;41.872;21.602;2024-01-25T05:29:10;45.70;;;27.38;;
78187;SDS011;67456;41.872;21.602;2024-01-25T05:31:37;48.90;;;31.08;;
78187;SDS011;67456;41.872;21.602;2024-01-25T05:34:03;58.40;;;31.38;;
78187;SDS011;67456;41.872;21.602;2024-01-25T05:36:32;39.60;;;24.63;;
78187;SDS011;67456;41.872;21.602;2024-01-25T05:38:59;34.13;;;21.38;;
78187;SDS011;67456;41.872;21.602;2024-01-25T05:41:25;35.92;;;22.70;;
78187;SDS011;67456;41.872;21.602;2024-01-25T05:43:51;35.42;;;20.90;;
78187;SDS011;67456;41.872;21.602;2024-01-25T05:46:18;34.08;;;21.58;;
78187;SDS011;67456;41.872;21.602;2024-01-25T05:48:45;36.53;;;22.08;;
78187;SDS011;67456;41.872;21.602;2024-01-25T05:51:12;32.13;;;19.65;;
78187;SDS011;67456;41.872;21.602;2024-01-25T05:53:39;42.25;;;25.10;;
78187;SDS011;67456;41.872;21.602;2024-01-25T05:56:10;41.08;;;25.90;;
78187;SDS011;67456;41.872;21.602;2024-01-25T05:58:36;44.33;;;24.58;;
78187;SDS011;67456;41.872;21.602;2024-01-25T06:01:03;35.50;;;21.52;;
78187;SDS011;67456;41.872;21.602;2024-01-25T06:03:30;32.42;;;19.55;;
78187;SDS011;67456;41.872;21.602;2024-01-25T06:05:57;36.45;;;19.40;;
78187;SDS011;67456;41.872;21.602;2024-01-25T06:08:27;30.70;;;19.58;;
78187;SDS011;67456;41.872;21.602;2024-01-25T06:10:54;35.63;;;22.40;;
78187;SDS011;67456;41.872;21.602;2024-01-25T06:13:21;36.30;;;22.40;;
78187;SDS011;67456;41.872;21.602;2024-01-25T06:15:48;35.85;;;21.50;;
78187;SDS011;67456;41.872;21.602;2024-01-25T06:18:15;33.55;;;22.85;;
78187;SDS011;67456;41.872;21.602;2024-01-25T06:20:41;36.70;;;21.00;;
78187;SDS011;67456;41.872;21.602;2024-01-25T06:23:09;42.95;;;26.17;;
78187;SDS011;67456;41.872;21.602;2024-01-25T06:25:36;55.20;;;30.50;;
78187;SDS011;67456;41.872;21.602;2024-01-25T06:28:02;110.72;;;51.75;;
78187;SDS011;67456;41.872;21.602;2024-01-25T06:30:29;53.58;;;31.58;;
78187;SDS011;67456;41.872;21.602;2024-01-25T06:32:55;79.63;;;43.03;;
78187;SDS011;67456;41.872;21.602;2024-01-25T06:35:21;63.70;;;36.53;;
78187;SDS011;67456;41.872;21.602;2024-01-25T06:37:47;51.85;;;33.97;;
78187;SDS011;67456;41.872;21.602;2024-01-25T06:40:14;41.50;;;25.05;;
78187;SDS011;67456;41.872;21.602;2024-01-25T06:42:40;74.50;;;36.70;;
78187;SDS011;67456;41.872;21.602;2024-01-25T06:45:07;44.45;;;27.95;;
78187;SDS011;67456;41.872;21.602;2024-01-25T06:47:34;39.92;;;24.00;;
78187;SDS011;67456;41.872;21.602;2024-01-25T06:50:01;38.17;;;22.98;;
78187;SDS011;67456;41.872;21.602;2024-01-25T06:52:27;31.83;;;20.98;;
78187;SDS011;67456;41.872;21.602;2024-01-25T06:54:53;34.15;;;22.73;;
78187;SDS011;67456;41.872;21.602;2024-01-25T06:57:19;33.63;;;20.75;;
78187;SDS011;67456;41.872;21.602;2024-01-25T06:59:46;35.00;;;21.15;;
78187;SDS011;67456;41.872;21.602;2024-01-25T07:02:13;28.33;;;15.68;;
78187;SDS011;67456;41.872;21.602;2024-01-25T07:04:39;31.85;;;20.40;;
78187;SDS011;67456;41.872;21.602;2024-01-25T07:07:06;35.83;;;21.75;;
78187;SDS011;67456;41.872;21.602;2024-01-25T07:09:32;35.83;;;21.83;;
78187;SDS011;67456;41.872;21.602;2024-01-25T07:11:58;33.90;;;22.10;;
78187;SDS011;67456;41.872;21.602;2024-01-25T07:14:25;29.95;;;19.17;;
78187;SDS011;67456;41.872;21.602;2024-01-25T07:16:51;26.30;;;16.65;;
78187;SDS011;67456;41.872;21.602;2024-01-25T07:19:17;27.83;;;17.38;;
78187;SDS011;67456;41.872;21.602;2024-01-25T07:21:44;46.72;;;28.48;;
78187;SDS011;67456;41.872;21.602;2024-01-25T07:24:11;42.33;;;26.70;;
78187;SDS011;67456;41.872;21.602;2024-01-25T07:26:37;50.65;;;29.42;;
78187;SDS011;67456;41.872;21.602;2024-01-25T07:29:03;40.28;;;28.25;;
78187;SDS011;67456;41.872;21.602;2024-01-25T07:31:39;39.78;;;24.90;;
78187;SDS011;67456;41.872;21.602;2024-01-25T07:34:06;37.35;;;22.58;;
78187;SDS011;67456;41.872;21.602;2024-01-25T07:36:32;35.22;;;21.98;;
78187;SDS011;67456;41.872;21.602;2024-01-25T07:38:58;34.15;;;21.52;;
78187;SDS011;67456;41.872;21.602;2024-01-25T07:41:24;31.13;;;19.40;;
78187;SDS011;67456;41.872;21.602;2024-01-25T07:43:50;26.30;;;17.60;;
78187;SDS011;67456;41.872;21.602;2024-01-25T07:46:20;32.63;;;20.17;;
78187;SDS011;67456;41.872;21.602;2024-01-25T07:48:46;30.83;;;20.75;;
78187;SDS011;67456;41.872;21.602;2024-01-25T07:51:12;33.22;;;22.42;;
78187;SDS011;67456;41.872;21.602;2024-01-25T07:53:39;49.00;;;30.55;;
78187;SDS011;67456;41.872;21.602;2024-01-25T07:56:08;49.17;;;30.50;;
78187;SDS011;67456;41.872;21.602;2024-01-25T07:58:35;57.40;;;32.85;;
78187;SDS011;67456;41.872;21.602;2024-01-25T08:01:03;43.55;;;29.75;;
78187;SDS011;67456;41.872;21.602;2024-01-25T08:03:30;34.17;;;21.60;;
78187;SDS011;67456;41.872;21.602;2024-01-25T08:05:56;44.83;;;24.58;;
78187;SDS011;67456;41.872;21.602;2024-01-25T08:08:22;29.45;;;20.08;;
78187;SDS011;67456;41.872;21.602;2024-01-25T08:10:48;39.22;;;22.58;;
78187;SDS011;67456;41.872;21.602;2024-01-25T08:13:14;35.17;;;21.30;;
78187;SDS011;67456;41.872;21.602;2024-01-25T08:15:40;34.10;;;22.38;;
78187;SDS011;67456;41.872;21.602;2024-01-25T08:18:07;36.63;;;22.30;;
78187;SDS011;67456;41.872;21.602;2024-01-25T08:20:33;39.67;;;26.33;;
78187;SDS011;67456;41.872;21.602;2024-01-25T08:23:01;41.92;;;28.25;;
78187;SDS011;67456;41.872;21.602;2024-01-25T08:25:27;35.08;;;24.25;;
78187;SDS011;67456;41.872;21.602;2024-01-25T08:27:53;30.92;;;22.05;;
78187;SDS011;67456;41.872;21.602;2024-01-25T08:30:19;35.85;;;24.40;;
78187;SDS011;67456;41.872;21.602;2024-01-25T08:32:45;36.38;;;26.17;;
78187;SDS011;67456;41.872;21.602;2024-01-25T08:35:12;35.10;;;22.90;;
78187;SDS011;67456;41.872;21.602;2024-01-25T08:37:38;33.53;;;22.15;;
78187;SDS011;67456;41.872;21.602;2024-01-25T08:40:05;37.65;;;24.25;;
78187;SDS011;67456;41.872;21.602;2024-01-25T08:42:31;39.83;;;26.45;;
78187;SDS011;67456;41.872;21.602;2024-01-25T08:44:58;32.97;;;21.73;;
78187;SDS011;67456;41.872;21.602;2024-01-25T08:47:24;28.42;;;19.10;;
78187;SDS011;67456;41.872;21.602;2024-01-25T08:49:50;32.63;;;20.90;;
78187;SDS011;67456;41.872;21.602;2024-01-25T08:52:16;26.67;;;18.77;;
78187;SDS011;67456;41.872;21.602;2024-01-25T08:54:42;30.98;;;20.48;;
78187;SDS011;67456;41.872;21.602;2024-01-25T08:57:09;31.45;;;22.48;;
78187;SDS011;67456;41.872;21.602;2024-01-25T08:59:36;24.02;;;16.67;;
78187;SDS011;67456;41.872;21.602;2024-01-25T09:02:06;25.25;;;17.35;;
78187;SDS011;67456;41.872;21.602;2024-01-25T09:04:32;22.10;;;16.02;;
78187;SDS011;67456;41.872;21.602;2024-01-25T09:06:59;21.88;;;17.17;;
78187;SDS011;67456;41.872;21.602;2024-01-25T09:09:25;24.67;;;18.38;;
78187;SDS011;67456;41.872;21.602;2024-01-25T09:11:51;30.17;;;18.13;;
78187;SDS011;67456;41.872;21.602;2024-01-25T09:14:18;32.10;;;20.73;;
78187;SDS011;67456;41.872;21.602;2024-01-25T09:16:44;30.85;;;20.90;;
78187;SDS011;67456;41.872;21.602;2024-01-25T09:19:10;36.95;;;23.75;;
78187;SDS011;67456;41.872;21.602;2024-01-25T09:21:39;33.63;;;21.92;;
78187;SDS011;67456;41.872;21.602;2024-01-25T09:24:05;33.47;;;21.75;;
78187;SDS011;67456;41.872;21.602;2024-01-25T09:26:32;32.22;;;19.80;;
78187;SDS011;67456;41.872;21.602;2024-01-25T09:28:58;38.88;;;23.63;;
78187;SDS011;67456;41.872;21.602;2024-01-25T09:31:24;50.63;;;27.08;;
78187;SDS011;67456;41.872;21.602;2024-01-25T09:33:51;39.55;;;23.42;;
78187;SDS011;67456;41.872;21.602;2024-01-25T09:36:17;29.27;;;20.67;;
78187;SDS011;67456;41.872;21.602;2024-01-25T09:38:43;34.08;;;24.08;;
78187;SDS011;67456;41.872;21.602;2024-01-25T09:41:09;31.63;;;20.00;;
78187;SDS011;67456;41.872;21.602;2024-01-25T09:43:39;32.63;;;22.98;;
78187;SDS011;67456;41.872;21.602;2024-01-25T09:46:05;35.63;;;22.52;;
78187;SDS011;67456;41.872;21.602;2024-01-25T09:48:32;38.13;;;25.20;;
78187;SDS011;67456;41.872;21.602;2024-01-25T09:50:59;32.00;;;22.73;;
78187;SDS011;67456;41.872;21.602;2024-01-25T09:53:25;37.20;;;24.63;;
78187;SDS011;67456;41.872;21.602;2024-01-25T09:56:00;36.53;;;22.88;;
78187;SDS011;67456;41.872;21.602;2024-01-25T09:58:31;33.95;;;23.30;;
78187;SDS011;67456;41.872;21.602;2024-01-25T10:00:59;30.73;;;20.92;;
78187;SDS011;67456;41.872;21.602;2024-01-25T10:03:26;33.33;;;22.08;;
78187;SDS011;67456;41.872;21.602;2024-01-25T10:05:52;36.05;;;23.30;;
78187;SDS011;67456;41.872;21.602;2024-01-25T10:08:18;31.20;;;21.58;;
78187;SDS011;67456;41.872;21.602;2024-01-25T10:10:48;32.45;;;21.33;;
78187;SDS011;67456;41.872;21.602;2024-01-25T10:13:15;41.20;;;27.80;;
78187;SDS011;67456;41.872;21.602;2024-01-25T10:15:41;40.88;;;29.13;;
78187;SDS011;67456;41.872;21.602;2024-01-25T10:18:09;38.05;;;26.73;;
78187;SDS011;67456;41.872;21.602;2024-01-25T10:20:42;32.53;;;24.60;;
78187;SDS011;67456;41.872;21.602;2024-01-25T10:23:08;38.72;;;25.08;;
78187;SDS011;67456;41.872;21.602;2024-01-25T10:25:35;38.95;;;28.45;;
78187;SDS011;67456;41.872;21.602;2024-01-25T10:28:04;41.45;;;27.25;;
78187;SDS011;67456;41.872;21.602;2024-01-25T10:30:31;26.48;;;19.38;;
78187;SDS011;67456;41.872;21.602;2024-01-25T10:32:58;29.77;;;20.00;;
78187;SDS011;67456;41.872;21.602;2024-01-25T10:35:25;28.83;;;17.85;;
78187;SDS011;67456;41.872;21.602;2024-01-25T10:37:52;29.55;;;19.10;;
78187;SDS011;67456;41.872;21.602;2024-01-25T10:40:18;30.23;;;19.30;;
78187;SDS011;67456;41.872;21.602;2024-01-25T10:42:45;44.95;;;26.80;;
78187;SDS011;67456;41.872;21.602;2024-01-25T10:45:11;51.83;;;27.98;;
78187;SDS011;67456;41.872;21.602;2024-01-25T10:47:38;42.72;;;26.10;;
78187;SDS011;67456;41.872;21.602;2024-01-25T10:50:06;45.60;;;24.02;;
78187;SDS011;67456;41.872;21.602;2024-01-25T10:52:37;40.40;;;22.27;;
78187;SDS011;67456;41.872;21.602;2024-01-25T10:55:03;41.42;;;24.17;;
78187;SDS011;67456;41.872;21.602;2024-01-25T10:57:42;40.28;;;25.35;;
78187;SDS011;67456;41.872;21.602;2024-01-25T11:00:12;29.17;;;19.67;;
78187;SDS011;67456;41.872;21.602;2024-01-25T11:02:39;30.25;;;19.83;;
78187;SDS011;67456;41.872;21.602;2024-01-25T11:05:15;34.58;;;22.02;;
78187;SDS011;67456;41.872;21.602;2024-01-25T11:10:13;43.95;;;21.30;;
78187;SDS011;67456;41.872;21.602;2024-01-25T11:15:41;43.38;;;22.67;;
78187;SDS011;67456;41.872;21.602;2024-01-25T11:18:08;34.30;;;20.95;;
78187;SDS011;67456;41.872;21.602;2024-01-25T11:20:37;25.58;;;16.67;;
78187;SDS011;67456;41.872;21.602;2024-01-25T11:23:05;27.65;;;17.52;;
78187;SDS011;67456;41.872;21.602;2024-01-25T11:25:36;25.77;;;17.80;;
78187;SDS011;67456;41.872;21.602;2024-01-25T11:28:03;30.65;;;18.52;;
78187;SDS011;67456;41.872;21.602;2024-01-25T11:30:33;35.97;;;23.10;;
78187;SDS011;67456;41.872;21.602;2024-01-25T11:33:00;31.10;;;20.65;;
78187;SDS011;67456;41.872;21.602;2024-01-25T11:35:26;29.20;;;19.15;;
78187;SDS011;67456;41.872;21.602;2024-01-25T11:37:52;33.72;;;19.85;;
78187;SDS011;67456;41.872;21.602;2024-01-25T11:40:19;29.55;;;19.23;;
78187;SDS011;67456;41.872;21.602;2024-01-25T11:42:49;29.52;;;18.58;;
78187;SDS011;67456;41.872;21.602;2024-01-25T11:45:17;39.88;;;22.23;;
78187;SDS011;67456;41.872;21.602;2024-01-25T11:47:43;54.15;;;27.02;;
78187;SDS011;67456;41.872;21.602;2024-01-25T11:50:10;50.22;;;28.88;;
78187;SDS011;67456;41.872;21.602;2024-01-25T11:52:37;43.58;;;27.58;;
78187;SDS011;67456;41.872;21.602;2024-01-25T11:55:04;41.05;;;24.02;;
78187;SDS011;67456;41.872;21.602;2024-01-25T11:57:31;38.47;;;24.73;;
78187;SDS011;67456;41.872;21.602;2024-01-25T11:59:58;48.53;;;29.75;;
78187;SDS011;67456;41.872;21.602;2024-01-25T12:02:25;44.50;;;28.63;;
78187;SDS011;67456;41.872;21.602;2024-01-25T12:04:52;45.28;;;28.13;;
78187;SDS011;67456;41.872;21.602;2024-01-25T12:07:21;44.45;;;27.23;;
78187;SDS011;67456;41.872;21.602;2024-01-25T12:10:04;37.65;;;26.52;;
78187;SDS011;67456;41.872;21.602;2024-01-25T12:12:30;39.13;;;24.05;;
78187;SDS011;67456;41.872;21.602;2024-01-25T12:14:57;36.75;;;25.80;;
78187;SDS011;67456;41.872;21.602;2024-01-25T12:17:25;30.05;;;22.75;;
78187;SDS011;67456;41.872;21.602;2024-01-25T12:19:54;31.25;;;21.55;;
78187;SDS011;67456;41.872;21.602;2024-01-25T12:22:21;33.97;;;21.58;;
78187;SDS011;67456;41.872;21.602;2024-01-25T12:24:47;32.67;;;21.55;;
78187;SDS011;67456;41.872;21.602;2024-01-25T12:27:16;50.17;;;33.78;;
78187;SDS011;67456;41.872;21.602;2024-01-25T12:29:42;53.90;;;34.97;;
78187;SDS011;67456;41.872;21.602;2024-01-25T12:32:09;55.22;;;37.55;;
78187;SDS011;67456;41.872;21.602;2024-01-25T12:34:35;46.47;;;30.50;;
78187;SDS011;67456;41.872;21.602;2024-01-25T12:37:02;38.00;;;27.00;;
78187;SDS011;67456;41.872;21.602;2024-01-25T12:39:29;18.33;;;10.77;;
78187;SDS011;67456;41.872;21.602;2024-01-25T12:41:55;11.80;;;7.40;;
78187;SDS011;67456;41.872;21.602;2024-01-25T12:44:21;8.25;;;6.13;;
78187;SDS011;67456;41.872;21.602;2024-01-25T12:46:47;10.82;;;5.90;;
78187;SDS011;67456;41.872;21.602;2024-01-25T12:49:13;11.45;;;6.70;;
78187;SDS011;67456;41.872;21.602;2024-01-25T12:51:40;14.23;;;5.60;;
78187;SDS011;67456;41.872;21.602;2024-01-25T12:54:06;15.10;;;9.00;;
78187;SDS011;67456;41.872;21.602;2024-01-25T12:56:33;9.48;;;4.95;;
78187;SDS011;67456;41.872;21.602;2024-01-25T12:58:59;7.15;;;5.20;;
78187;SDS011;67456;41.872;21.602;2024-01-25T13:01:25;9.18;;;4.00;;
78187;SDS011;67456;41.872;21.602;2024-01-25T13:03:52;12.80;;;6.80;;
78187;SDS011;67456;41.872;21.602;2024-01-25T13:06:18;10.95;;;6.30;;
78187;SDS011;67456;41.872;21.602;2024-01-25T13:08:44;9.75;;;5.90;;
78187;SDS011;67456;41.872;21.602;2024-01-25T13:11:11;7.55;;;4.00;;
78187;SDS011;67456;41.872;21.602;2024-01-25T13:13:37;6.88;;;3.80;;
78187;SDS011;67456;41.872;21.602;2024-01-25T13:16:04;6.20;;;3.88;;
78187;SDS011;67456;41.872;21.602;2024-01-25T13:18:30;10.32;;;5.22;;
78187;SDS011;67456;41.872;21.602;2024-01-25T13:20:56;9.80;;;5.05;;
78187;SDS011;67456;41.872;21.602;2024-01-25T13:23:22;13.50;;;6.60;;
78187;SDS011;67456;41.872;21.602;2024-01-25T13:25:48;16.58;;;8.73;;
78187;SDS011;67456;41.872;21.602;2024-01-25T13:28:15;9.77;;;5.82;;
78187;SDS011;67456;41.872;21.602;2024-01-25T13:30:41;11.60;;;6.85;;
78187;SDS011;67456;41.872;21.602;2024-01-25T13:33:07;15.45;;;8.27;;
78187;SDS011;67456;41.872;21.602;2024-01-25T13:35:33;25.25;;;13.13;;
78187;SDS011;67456;41.872;21.602;2024-01-25T13:37:59;17.63;;;9.52;;
78187;SDS011;67456;41.872;21.602;2024-01-25T13:40:27;18.13;;;8.52;;
78187;SDS011;67456;41.872;21.602;2024-01-25T13:42:53;18.38;;;9.57;;
78187;SDS011;67456;41.872;21.602;2024-01-25T13:45:22;14.77;;;8.82;;
78187;SDS011;67456;41.872;21.602;2024-01-25T13:47:48;17.50;;;11.48;;
78187;SDS011;67456;41.872;21.602;2024-01-25T13:50:14;15.85;;;9.70;;
78187;SDS011;67456;41.872;21.602;2024-01-25T13:52:41;12.35;;;8.30;;
78187;SDS011;67456;41.872;21.602;2024-01-25T13:55:07;9.43;;;6.20;;
78187;SDS011;67456;41.872;21.602;2024-01-25T13:57:33;9.85;;;4.55;;
78187;SDS011;67456;41.872;21.602;2024-01-25T13:59:59;9.40;;;5.20;;
78187;SDS011;67456;41.872;21.602;2024-01-25T14:02:26;13.43;;;7.95;;
78187;SDS011;67456;41.872;21.602;2024-01-25T14:04:52;12.05;;;6.10;;
78187;SDS011;67456;41.872;21.602;2024-01-25T14:07:18;11.05;;;6.60;;
78187;SDS011;67456;41.872;21.602;2024-01-25T14:09:46;10.63;;;7.00;;
78187;SDS011;67456;41.872;21.602;2024-01-25T14:12:12;10.32;;;5.55;;
78187;SDS011;67456;41.872;21.602;2024-01-25T14:14:38;10.70;;;6.28;;